createdAt,value
2019-05-17T00:00:57.340Z,8.28
2019-05-17T00:03:51.915Z,7.92
2019-05-17T00:06:47.644Z,7.83
2019-05-17T00:09:42.182Z,8.75
2019-05-17T00:12:37.026Z,8.50
2019-05-17T00:15:31.626Z,8.53
2019-05-17T00:18:26.490Z,9.10
2019-05-17T00:21:20.744Z,8.63
2019-05-17T00:24:18.091Z,10.28
2019-05-17T00:27:12.607Z,10.08
2019-05-17T00:30:07.971Z,10.20
2019-05-17T00:33:03.307Z,12.53
2019-05-17T00:35:57.774Z,14.28
2019-05-17T00:38:53.463Z,13.68
2019-05-17T00:41:47.983Z,14.20
2019-05-17T00:44:47.174Z,16.48
2019-05-17T00:47:42.818Z,16.30
2019-05-17T00:50:38.160Z,17.15
2019-05-17T00:53:33.736Z,17.35
2019-05-17T00:56:28.215Z,16.55
2019-05-17T00:59:22.342Z,17.27
2019-05-17T01:02:17.199Z,18.15
2019-05-17T01:05:11.937Z,18.62
2019-05-17T01:08:07.333Z,18.90
2019-05-17T01:11:06.933Z,19.73
2019-05-17T01:14:02.980Z,18.10
2019-05-17T01:16:57.207Z,19.48
2019-05-17T01:19:51.806Z,19.23
2019-05-17T01:22:47.504Z,19.37
2019-05-17T01:25:41.855Z,18.27
2019-05-17T01:28:37.167Z,18.80
2019-05-17T01:31:32.942Z,17.67
2019-05-17T01:34:27.715Z,16.65
2019-05-17T01:37:22.388Z,17.55
2019-05-17T01:40:17.838Z,17.35
2019-05-17T01:43:13.131Z,17.92
2019-05-17T01:46:07.480Z,16.75
2019-05-17T01:49:02.356Z,17.05
2019-05-17T01:51:58.383Z,17.25
2019-05-17T01:54:57.011Z,16.45
2019-05-17T01:57:51.674Z,15.55
2019-05-17T02:00:46.612Z,15.58
2019-05-17T02:03:41.592Z,15.75
2019-05-17T02:06:36.573Z,15.40
2019-05-17T02:09:37.698Z,14.03
2019-05-17T02:12:29.364Z,14.20
2019-05-17T02:15:26.701Z,14.40
2019-05-17T02:18:20.729Z,15.93
2019-05-17T02:21:16.851Z,14.70
2019-05-17T02:24:16.955Z,14.73
2019-05-17T02:27:12.338Z,15.35
2019-05-17T02:30:07.264Z,15.45
2019-05-17T02:33:04.044Z,14.58
2019-05-17T02:36:02.840Z,14.55
2019-05-17T02:39:03.589Z,14.28
2019-05-17T02:42:02.547Z,15.18
2019-05-17T02:44:57.229Z,15.03
2019-05-17T02:47:53.703Z,15.53
2019-05-17T02:50:48.951Z,15.45
2019-05-17T02:53:43.807Z,16.02
2019-05-17T02:56:39.592Z,15.80
2019-05-17T02:59:33.809Z,15.13
2019-05-17T03:02:33.845Z,16.57
2019-05-17T03:05:25.501Z,15.83
2019-05-17T03:08:23.483Z,16.25
2019-05-17T03:11:22.689Z,15.88
2019-05-17T03:14:19.567Z,15.83
2019-05-17T03:17:14.502Z,16.40
2019-05-17T03:20:14.173Z,16.40
2019-05-17T03:23:12.660Z,17.87
2019-05-17T03:26:07.972Z,18.02
2019-05-17T03:29:06.709Z,17.65
2019-05-17T03:32:08.601Z,17.98
2019-05-17T03:35:06.770Z,17.50
2019-05-17T03:37:58.461Z,18.32
2019-05-17T03:41:53.559Z,17.87
2019-05-17T03:44:48.253Z,17.82
2019-05-17T03:47:44.612Z,18.67
2019-05-17T03:50:38.160Z,17.95
2019-05-17T03:53:33.639Z,19.42
2019-05-17T03:56:28.525Z,19.45
2019-05-17T03:59:24.406Z,19.02
2019-05-17T04:02:22.820Z,19.40
2019-05-17T04:05:15.890Z,19.55
2019-05-17T04:08:13.633Z,19.73
2019-05-17T04:11:22.151Z,19.32
2019-05-17T04:14:06.047Z,20.00
2019-05-17T04:17:03.031Z,19.00
2019-05-17T04:19:57.083Z,16.60
2019-05-17T04:22:52.841Z,19.87
2019-05-17T04:25:47.639Z,17.92
2019-05-17T04:28:44.044Z,15.15
2019-05-17T04:31:43.496Z,18.87
2019-05-17T04:34:43.412Z,11.70
2019-05-17T04:37:38.610Z,17.90
2019-05-17T04:40:34.463Z,16.75
2019-05-17T04:43:33.408Z,16.30
2019-05-17T04:46:32.416Z,15.00
2019-05-17T04:49:27.853Z,14.98
2019-05-17T04:52:25.209Z,15.83
2019-05-17T04:55:23.056Z,11.15
2019-05-17T04:58:18.454Z,13.35
2019-05-17T05:01:13.790Z,14.68
2019-05-17T05:04:15.122Z,13.18
2019-05-17T05:07:22.490Z,10.93
2019-05-17T05:10:29.022Z,12.70
2019-05-17T05:13:33.395Z,11.93
2019-05-17T05:16:36.509Z,11.60
2019-05-17T05:23:35.498Z,10.45
2019-05-17T05:26:42.474Z,9.40
2019-05-17T05:30:02.991Z,9.18
2019-05-17T05:33:01.880Z,9.05
2019-05-17T05:36:14.492Z,10.05
2019-05-17T05:41:36.711Z,8.80
2019-05-17T05:42:55.618Z,8.83
2019-05-17T05:46:45.393Z,9.05
2019-05-17T05:50:01.968Z,8.25
2019-05-17T05:53:04.980Z,8.20
2019-05-17T05:56:07.023Z,8.23
2019-05-17T05:59:08.018Z,8.08
2019-05-17T06:02:47.359Z,7.55
2019-05-17T06:05:46.910Z,8.00
2019-05-17T06:08:46.776Z,8.00
2019-05-17T06:11:59.173Z,8.18
2019-05-17T06:14:58.583Z,7.92
2019-05-17T06:17:57.050Z,6.67
2019-05-17T06:20:55.359Z,7.00
2019-05-17T06:24:47.468Z,7.20
2019-05-17T06:27:32.004Z,6.58
2019-05-17T06:30:32.222Z,6.78
2019-05-17T06:33:31.070Z,6.53
2019-05-17T06:36:25.287Z,6.37
2019-05-17T06:40:02.407Z,6.50
2019-05-17T06:43:04.183Z,6.20
2019-05-17T06:46:08.923Z,5.62
2019-05-17T06:49:11.734Z,6.12
2019-05-17T06:52:07.645Z,6.22
2019-05-17T06:55:05.733Z,6.20
2019-05-17T06:58:03.785Z,5.25
2019-05-17T07:01:06.820Z,5.60
2019-05-17T07:04:02.385Z,5.30
2019-05-17T07:07:17.901Z,5.10
2019-05-17T07:10:25.732Z,5.03
2019-05-17T07:21:29.705Z,5.47
2019-05-17T07:24:40.835Z,5.50
2019-05-17T07:31:40.469Z,5.15
2019-05-17T07:35:05.279Z,5.47
2019-05-17T07:38:23.059Z,4.83
2019-05-17T07:41:22.604Z,5.20
2019-05-17T07:44:40.212Z,5.78
2019-05-17T07:47:33.698Z,6.05
2019-05-17T07:50:45.735Z,5.78
2019-05-17T07:54:15.330Z,6.22
2019-05-17T07:57:25.824Z,5.90
2019-05-17T08:00:31.914Z,6.37
2019-05-17T08:03:32.836Z,5.72
2019-05-17T08:06:30.578Z,5.58
2019-05-17T08:09:30.043Z,5.72
2019-05-17T08:12:30.421Z,6.17
2019-05-17T08:15:27.686Z,5.83
2019-05-17T08:18:23.041Z,6.05
2019-05-17T08:21:19.906Z,5.78
2019-05-17T08:24:16.105Z,6.10
2019-05-17T08:27:16.395Z,5.97
2019-05-17T08:30:13.616Z,6.47
2019-05-17T08:33:24.001Z,6.53
2019-05-17T08:36:21.280Z,6.30
2019-05-17T08:39:20.757Z,6.05
2019-05-17T08:42:20.327Z,6.37
2019-05-17T08:45:15.493Z,6.12
2019-05-17T08:48:11.733Z,6.08
2019-05-17T08:51:11.282Z,6.85
2019-05-17T08:54:11.038Z,6.37
2019-05-17T08:57:09.879Z,6.22
2019-05-17T09:00:12.759Z,6.60
2019-05-17T09:03:20.680Z,5.75
2019-05-17T09:07:29.494Z,6.08
2019-05-17T09:11:02.539Z,5.60
2019-05-17T09:13:57.503Z,6.30
2019-05-17T09:16:50.544Z,5.85
2019-05-17T09:19:50.937Z,5.78
2019-05-17T09:22:47.794Z,6.53
2019-05-17T09:25:51.062Z,6.12
2019-05-17T09:37:53.859Z,6.12
2019-05-17T09:41:29.350Z,6.60
2019-05-17T09:45:12.964Z,5.58
2019-05-17T09:48:10.242Z,5.80
2019-05-17T09:51:23.622Z,6.10
2019-05-17T09:54:41.684Z,5.42
2019-05-17T09:57:29.805Z,6.58
2019-05-17T10:00:26.146Z,5.80
2019-05-17T10:03:24.089Z,4.37
2019-05-17T10:06:28.740Z,4.45
2019-05-17T10:09:23.626Z,5.20
2019-05-17T10:12:20.740Z,6.08
2019-05-17T10:15:17.676Z,5.35
2019-05-17T10:18:16.473Z,5.00
2019-05-17T10:21:19.896Z,5.60
2019-05-17T10:24:19.910Z,5.53
2019-05-17T10:27:19.634Z,5.08
2019-05-17T10:30:46.108Z,5.47
2019-05-17T10:33:45.403Z,4.50
2019-05-17T10:36:40.775Z,4.83
2019-05-17T10:39:38.435Z,5.87
2019-05-17T10:42:32.156Z,4.50
2019-05-17T10:45:27.527Z,4.10
2019-05-17T10:48:24.492Z,4.60
2019-05-17T10:51:22.091Z,4.60
2019-05-17T10:54:33.959Z,4.97
2019-05-17T10:57:40.191Z,5.12
2019-05-17T11:00:40.949Z,5.33
2019-05-17T11:03:35.541Z,4.92
2019-05-17T11:06:41.206Z,5.00
2019-05-17T11:09:40.233Z,4.60
2019-05-17T11:12:35.395Z,4.80
2019-05-17T11:16:03.097Z,4.50
2019-05-17T11:19:08.523Z,4.42
2019-05-17T11:22:04.370Z,4.70
2019-05-17T11:25:03.134Z,4.75
2019-05-17T11:28:04.236Z,4.85
2019-05-17T11:31:02.211Z,5.35
2019-05-17T11:34:00.867Z,4.87
2019-05-17T11:37:10.625Z,4.58
2019-05-17T11:40:08.148Z,4.40
2019-05-17T11:43:06.082Z,4.60
2019-05-17T11:46:05.632Z,4.90
2019-05-17T11:49:03.740Z,4.42
2019-05-17T11:51:59.455Z,4.70
2019-05-17T11:54:59.158Z,4.72
2019-05-17T11:57:55.573Z,4.65
2019-05-17T12:00:51.318Z,4.70
2019-05-17T12:03:51.420Z,4.95
2019-05-17T12:06:46.823Z,5.75
2019-05-17T12:09:43.939Z,5.67
2019-05-17T12:12:39.234Z,6.12
2019-05-17T12:15:45.162Z,5.67
2019-05-17T12:18:35.831Z,6.28
2019-05-17T12:21:32.119Z,6.42
2019-05-17T12:24:28.191Z,6.35
2019-05-17T12:27:23.400Z,6.22
2019-05-17T12:30:19.071Z,6.15
2019-05-17T12:33:13.809Z,6.17
2019-05-17T12:36:09.182Z,6.05
2019-05-17T12:39:03.186Z,6.40
2019-05-17T12:42:01.873Z,7.10
2019-05-17T12:44:56.619Z,7.15
2019-05-17T12:47:51.401Z,6.35
2019-05-17T12:50:45.547Z,6.55
2019-05-17T12:53:40.447Z,6.92
2019-05-17T12:56:35.526Z,6.62
2019-05-17T12:59:30.830Z,6.65
2019-05-17T13:02:25.901Z,7.80
2019-05-17T13:05:22.130Z,6.05
2019-05-17T13:08:18.838Z,6.70
2019-05-17T13:11:14.761Z,6.40
2019-05-17T13:14:09.496Z,6.58
2019-05-17T13:17:05.343Z,6.72
2019-05-17T13:20:06.282Z,6.12
2019-05-17T13:23:03.456Z,6.62
2019-05-17T13:25:59.616Z,6.72
2019-05-17T13:28:55.658Z,6.03
2019-05-17T13:31:53.108Z,6.72
2019-05-17T13:34:48.733Z,6.42
2019-05-17T13:37:44.554Z,7.22
2019-05-17T13:40:41.943Z,6.10
2019-05-17T13:43:36.972Z,6.90
2019-05-17T13:46:35.950Z,6.30
2019-05-17T13:49:32.927Z,5.90
2019-05-17T13:52:29.908Z,6.42
2019-05-17T13:55:27.158Z,6.42
2019-05-17T13:58:25.072Z,6.35
2019-05-17T14:01:22.272Z,5.90
2019-05-17T14:04:19.976Z,6.25
2019-05-17T14:07:18.735Z,6.87
2019-05-17T14:10:26.853Z,6.55
2019-05-17T14:13:15.242Z,6.67
2019-05-17T14:16:12.918Z,6.28
2019-05-17T14:19:11.823Z,6.17
2019-05-17T14:22:12.076Z,6.35
2019-05-17T14:25:10.623Z,6.58
2019-05-17T14:28:11.245Z,6.95
2019-05-17T14:31:04.067Z,6.45
2019-05-17T14:33:59.740Z,6.40
2019-05-17T14:36:54.647Z,6.97
2019-05-17T14:39:50.157Z,7.22
2019-05-17T14:42:47.900Z,6.90
2019-05-17T14:45:42.929Z,7.65
2019-05-17T14:48:38.316Z,6.85
2019-05-17T14:51:33.578Z,7.25
2019-05-17T14:54:28.842Z,6.95
2019-05-17T14:57:23.685Z,7.37
2019-05-17T15:00:18.607Z,7.00
2019-05-17T15:03:13.471Z,8.83
2019-05-17T15:06:09.189Z,8.33
2019-05-17T15:09:11.208Z,7.65
2019-05-17T15:12:04.932Z,7.22
2019-05-17T15:15:01.785Z,8.18
2019-05-17T15:17:59.325Z,7.47
2019-05-17T15:20:55.671Z,7.78
2019-05-17T15:23:51.618Z,7.87
2019-05-17T15:27:04.084Z,7.97
2019-05-17T15:29:45.761Z,7.97
2019-05-17T15:32:41.407Z,7.62
2019-05-17T15:35:35.729Z,7.53
2019-05-17T15:38:29.991Z,8.75
2019-05-17T15:41:26.611Z,8.63
2019-05-17T15:44:22.881Z,7.97
2019-05-17T15:47:20.300Z,8.15
2019-05-17T15:50:17.631Z,8.65
2019-05-17T15:53:13.038Z,8.38
2019-05-17T15:56:09.847Z,8.93
2019-05-17T15:59:05.404Z,8.05
2019-05-17T16:02:01.317Z,8.65
2019-05-17T16:04:57.260Z,8.83
2019-05-17T16:07:54.948Z,8.53
2019-05-17T16:10:54.231Z,9.23
2019-05-17T16:13:51.356Z,8.73
2019-05-17T16:16:47.583Z,8.38
2019-05-17T16:19:44.157Z,9.10
2019-05-17T16:22:38.982Z,9.28
2019-05-17T16:25:34.202Z,8.68
2019-05-17T16:28:28.367Z,8.43
2019-05-17T16:31:25.765Z,8.78
2019-05-17T16:34:20.008Z,8.58
2019-05-17T16:37:14.160Z,8.80
2019-05-17T16:40:09.390Z,8.80
2019-05-17T16:43:17.035Z,9.08
2019-05-17T16:46:02.055Z,9.85
2019-05-17T16:48:59.766Z,9.65
2019-05-17T16:51:57.901Z,8.68
2019-05-17T16:54:55.896Z,8.68
2019-05-17T16:57:50.791Z,9.25
2019-05-17T17:00:46.819Z,8.33
2019-05-17T17:03:44.492Z,8.88
2019-05-17T17:06:39.900Z,8.35
2019-05-17T17:09:37.369Z,9.55
2019-05-17T17:12:33.463Z,9.05
2019-05-17T17:15:28.737Z,8.83
2019-05-17T17:18:23.897Z,9.10
2019-05-17T17:21:18.462Z,8.45
2019-05-17T17:24:15.477Z,8.83
2019-05-17T17:27:13.750Z,9.48
2019-05-17T17:30:12.187Z,9.25
2019-05-17T17:33:10.413Z,9.05
2019-05-17T17:36:07.643Z,8.45
2019-05-17T17:39:08.059Z,8.70
2019-05-17T17:42:03.476Z,8.70
2019-05-17T17:45:00.458Z,8.80
2019-05-17T17:47:57.993Z,9.28
2019-05-17T17:50:55.906Z,8.85
2019-05-17T17:53:54.343Z,8.93
2019-05-17T17:56:50.332Z,9.25
2019-05-17T17:59:47.564Z,9.03
2019-05-17T18:02:43.787Z,9.45
2019-05-17T18:05:38.657Z,8.53
2019-05-17T18:08:34.809Z,8.90
2019-05-17T18:11:31.529Z,9.00
2019-05-17T18:14:32.327Z,8.80
2019-05-17T18:17:29.345Z,9.43
2019-05-17T18:20:25.561Z,8.70
2019-05-17T18:23:23.459Z,8.70
2019-05-17T18:26:30.877Z,8.53
2019-05-17T18:29:25.810Z,9.18
2019-05-17T18:32:21.540Z,8.88
2019-05-17T18:35:19.117Z,8.25
2019-05-17T18:38:15.224Z,9.30
2019-05-17T18:41:10.267Z,8.65
2019-05-17T18:44:05.359Z,8.83
2019-05-17T18:47:00.558Z,8.35
2019-05-17T18:49:55.221Z,8.50
2019-05-17T18:52:50.914Z,8.63
2019-05-17T18:55:46.123Z,9.15
2019-05-17T18:58:41.005Z,8.75
2019-05-17T19:01:36.169Z,8.70
2019-05-17T19:04:31.002Z,9.35
2019-05-17T19:07:25.691Z,8.95
2019-05-17T19:10:23.440Z,8.65
2019-05-17T19:13:18.177Z,8.33
2019-05-17T19:16:12.701Z,9.30
2019-05-17T19:19:09.170Z,9.10
2019-05-17T19:22:03.867Z,8.98
2019-05-17T19:24:58.639Z,8.53
2019-05-17T19:27:54.404Z,9.18
2019-05-17T19:30:51.472Z,9.30
2019-05-17T19:33:46.741Z,8.60
2019-05-17T19:36:41.766Z,8.60
2019-05-17T19:39:36.620Z,9.38
2019-05-17T19:42:32.187Z,9.78
2019-05-17T19:45:27.515Z,8.78
2019-05-17T19:48:22.933Z,9.10
2019-05-17T19:51:17.877Z,9.50
2019-05-17T19:54:12.718Z,9.23
2019-05-17T19:57:08.414Z,9.90
2019-05-17T20:00:04.515Z,10.35
2019-05-17T20:03:00.011Z,9.58
2019-05-17T20:05:55.475Z,9.15
2019-05-17T20:08:51.876Z,9.25
2019-05-17T20:11:48.076Z,9.38
2019-05-17T20:14:44.334Z,9.60
2019-05-17T20:17:40.618Z,9.00
2019-05-17T20:20:40.461Z,9.35
2019-05-17T20:23:37.167Z,9.18
2019-05-17T20:26:34.237Z,10.18
2019-05-17T20:29:30.816Z,9.33
2019-05-17T20:32:26.317Z,10.03
2019-05-17T20:35:22.741Z,10.20
2019-05-17T20:38:19.107Z,9.98
2019-05-17T20:41:15.047Z,9.58
2019-05-17T20:44:11.194Z,9.20
2019-05-17T20:47:05.462Z,9.93
2019-05-17T20:50:00.575Z,10.05
2019-05-17T20:52:54.997Z,9.73
2019-05-17T20:55:49.480Z,10.30
2019-05-17T20:58:44.267Z,10.40
2019-05-17T21:01:38.950Z,10.13
2019-05-17T21:04:33.331Z,9.80
2019-05-17T21:07:29.180Z,10.55
2019-05-17T21:10:25.061Z,10.10
2019-05-17T21:13:19.632Z,10.78
2019-05-17T21:16:14.516Z,10.48
2019-05-17T21:19:09.214Z,10.68
2019-05-17T21:22:04.008Z,10.90
2019-05-17T21:24:58.785Z,11.30
2019-05-17T21:27:53.289Z,11.78
2019-05-17T21:30:49.018Z,11.00
2019-05-17T21:33:44.195Z,10.72
2019-05-17T21:36:41.755Z,11.22
2019-05-17T21:39:41.561Z,11.03
2019-05-17T21:42:38.026Z,10.55
2019-05-17T21:45:36.154Z,11.18
2019-05-17T21:48:34.282Z,10.82
2019-05-17T21:51:31.194Z,10.70
2019-05-17T21:54:27.934Z,10.95
2019-05-17T21:57:24.632Z,10.45
2019-05-17T22:00:30.375Z,11.53
2019-05-17T22:03:29.014Z,11.10
2019-05-17T22:06:26.524Z,10.23
2019-05-17T22:09:24.723Z,10.58
2019-05-17T22:12:22.141Z,10.95
2019-05-17T22:15:20.001Z,9.88
2019-05-17T22:18:18.629Z,10.48
2019-05-17T22:21:13.693Z,10.15
2019-05-17T22:24:08.603Z,10.63
2019-05-17T22:27:05.498Z,9.95
2019-05-17T22:30:01.288Z,9.93
2019-05-17T22:32:56.351Z,10.35
2019-05-17T22:35:52.870Z,9.88
2019-05-17T22:38:47.398Z,10.75
2019-05-17T22:41:41.601Z,10.05
2019-05-17T22:44:36.823Z,10.13
2019-05-17T22:47:31.227Z,9.70
2019-05-17T22:50:25.086Z,9.98
2019-05-17T22:53:19.601Z,10.48
2019-05-17T22:56:13.956Z,9.70
2019-05-17T22:59:08.361Z,9.90
2019-05-17T23:02:02.923Z,10.03
2019-05-17T23:04:57.358Z,10.48
2019-05-17T23:07:51.526Z,9.43
2019-05-17T23:10:45.987Z,10.70
2019-05-17T23:13:41.869Z,9.88
2019-05-17T23:16:50.536Z,9.40
2019-05-17T23:19:32.466Z,9.65
2019-05-17T23:22:26.706Z,9.80
2019-05-17T23:25:22.078Z,10.30
2019-05-17T23:28:16.315Z,10.30
2019-05-17T23:31:11.063Z,10.23
2019-05-17T23:34:05.783Z,9.45
2019-05-17T23:37:00.356Z,10.13
2019-05-17T23:39:55.044Z,10.23
2019-05-17T23:42:49.393Z,9.20
2019-05-17T23:45:44.907Z,10.72
2019-05-17T23:48:39.406Z,9.98
2019-05-17T23:51:33.696Z,10.05
2019-05-17T23:54:27.944Z,9.65
2019-05-17T23:57:22.262Z,10.25
